createdAt,value
2022-12-04T00:00:27.505Z,24.60
2022-12-04T00:02:54.601Z,25.10
2022-12-04T00:05:21.412Z,26.97
2022-12-04T00:07:49.406Z,26.90
2022-12-04T00:10:16.177Z,24.80
2022-12-04T00:12:43.202Z,26.03
2022-12-04T00:15:26.969Z,24.77
2022-12-04T00:17:54.673Z,26.23
2022-12-04T00:20:22.812Z,25.37
2022-12-04T00:22:50.377Z,26.23
2022-12-04T00:25:17.160Z,26.43
2022-12-04T00:27:43.923Z,28.03
2022-12-04T00:30:11.200Z,26.70
2022-12-04T00:32:37.869Z,23.10
2022-12-04T00:35:04.916Z,25.53
2022-12-04T00:37:33.268Z,24.73
2022-12-04T00:40:00.378Z,23.00
2022-12-04T00:42:27.108Z,26.60
2022-12-04T00:44:53.836Z,25.87
2022-12-04T00:47:20.775Z,24.40
2022-12-04T00:49:47.492Z,25.90
2022-12-04T00:52:14.211Z,26.33
2022-12-04T00:54:40.848Z,24.43
2022-12-04T00:57:07.659Z,27.23
2022-12-04T00:59:34.450Z,25.63
2022-12-04T01:02:01.522Z,24.87
2022-12-04T01:04:28.261Z,25.50
2022-12-04T01:06:58.044Z,26.67
2022-12-04T01:09:28.359Z,25.17
2022-12-04T01:11:54.984Z,24.10
2022-12-04T01:14:21.730Z,25.43
2022-12-04T01:16:48.459Z,26.60
2022-12-04T01:19:15.289Z,26.57
2022-12-04T01:21:41.950Z,23.13
2022-12-04T01:24:09.291Z,24.90
2022-12-04T01:26:35.967Z,22.87
2022-12-04T01:29:03.537Z,24.90
2022-12-04T01:31:30.715Z,24.97
2022-12-04T01:33:57.785Z,27.47
2022-12-04T01:36:35.576Z,24.87
2022-12-04T01:39:02.655Z,25.27
2022-12-04T01:41:32.177Z,26.00
2022-12-04T01:44:13.996Z,25.53
2022-12-04T01:46:42.898Z,27.37
2022-12-04T01:49:15.710Z,26.30
2022-12-04T01:51:46.470Z,27.53
2022-12-04T01:54:20.269Z,26.97
2022-12-04T01:56:51.611Z,26.20
2022-12-04T01:59:22.948Z,26.20
2022-12-04T02:02:02.533Z,23.53
2022-12-04T02:04:31.053Z,24.57
2022-12-04T02:06:57.805Z,25.23
2022-12-04T02:09:26.983Z,24.27
2022-12-04T02:12:25.269Z,24.30
2022-12-04T02:15:07.354Z,26.53
2022-12-04T02:17:46.209Z,25.17
2022-12-04T02:20:34.026Z,23.80
2022-12-04T02:23:17.837Z,23.70
2022-12-04T02:26:00.886Z,26.30
2022-12-04T02:28:41.622Z,25.77
2022-12-04T02:31:13.614Z,26.20
2022-12-04T02:34:16.148Z,25.70
2022-12-04T02:37:00.713Z,23.87
2022-12-04T02:39:43.774Z,23.90
2022-12-04T02:42:18.532Z,24.10
2022-12-04T02:44:50.584Z,26.60
2022-12-04T02:47:22.274Z,26.30
2022-12-04T02:49:57.045Z,22.90
2022-12-04T02:52:31.618Z,23.87
2022-12-04T02:55:08.356Z,23.10
2022-12-04T02:57:40.940Z,24.87
2022-12-04T03:00:08.961Z,25.73
2022-12-04T03:02:48.485Z,25.47
2022-12-04T03:05:18.488Z,25.90
2022-12-04T03:07:57.541Z,26.07
2022-12-04T03:10:34.846Z,23.13
2022-12-04T03:13:11.656Z,23.17
2022-12-04T03:15:49.205Z,26.73
2022-12-04T03:18:26.716Z,24.30
2022-12-04T03:21:01.051Z,22.53
2022-12-04T03:23:33.782Z,25.57
2022-12-04T03:26:14.850Z,24.10
2022-12-04T03:28:57.273Z,24.87
2022-12-04T03:31:52.804Z,25.70
2022-12-04T03:34:27.842Z,23.13
2022-12-04T03:36:59.270Z,24.70
2022-12-04T03:39:35.113Z,25.87
2022-12-04T03:42:13.196Z,23.63
2022-12-04T03:44:43.995Z,24.20
2022-12-04T03:47:18.739Z,24.10
2022-12-04T03:49:59.658Z,24.70
2022-12-04T03:52:40.454Z,24.07
2022-12-04T03:55:13.341Z,25.03
2022-12-04T03:57:44.022Z,23.17
2022-12-04T04:00:18.689Z,22.87
2022-12-04T04:02:59.929Z,23.20
2022-12-04T04:05:28.861Z,23.47
2022-12-04T04:08:20.805Z,24.53
2022-12-04T04:10:49.293Z,24.43
2022-12-04T04:13:40.604Z,23.57
2022-12-04T04:16:29.767Z,23.77
2022-12-04T04:19:17.332Z,23.93
2022-12-04T04:22:05.020Z,22.67
2022-12-04T04:24:36.649Z,21.43
2022-12-04T04:27:03.622Z,22.60
2022-12-04T04:29:30.541Z,21.97
2022-12-04T04:32:10.465Z,24.20
2022-12-04T04:34:58.612Z,22.10
2022-12-04T04:37:38.197Z,22.67
2022-12-04T04:40:24.346Z,20.80
2022-12-04T04:42:55.174Z,23.27
2022-12-04T04:45:44.097Z,22.23
2022-12-04T04:48:13.891Z,22.80
2022-12-04T04:50:42.389Z,21.23
2022-12-04T04:53:15.306Z,23.33
2022-12-04T04:55:42.519Z,23.53
2022-12-04T04:58:12.437Z,21.77
2022-12-04T05:00:40.941Z,20.83
2022-12-04T05:03:07.659Z,19.60
2022-12-04T05:05:34.368Z,19.97
2022-12-04T05:08:01.276Z,20.93
2022-12-04T05:10:28.036Z,19.50
2022-12-04T05:12:54.682Z,19.53
2022-12-04T05:15:21.336Z,18.67
2022-12-04T05:17:48.219Z,18.97
2022-12-04T05:20:14.981Z,21.70
2022-12-04T05:22:42.075Z,21.37
2022-12-04T05:25:10.419Z,18.73
2022-12-04T05:27:37.257Z,21.10
2022-12-04T05:30:05.011Z,20.37
2022-12-04T05:32:31.676Z,20.33
2022-12-04T05:34:58.529Z,20.70
2022-12-04T05:37:25.881Z,20.07
2022-12-04T05:39:53.866Z,19.20
2022-12-04T05:42:21.077Z,20.50
2022-12-04T05:44:49.743Z,21.07
2022-12-04T05:47:17.157Z,21.13
2022-12-04T05:49:43.853Z,19.60
2022-12-04T05:52:10.758Z,19.40
2022-12-04T05:54:37.858Z,18.90
2022-12-04T05:57:04.936Z,20.17
2022-12-04T05:59:31.689Z,19.27
2022-12-04T06:01:58.569Z,20.50
2022-12-04T06:04:25.789Z,19.97
2022-12-04T06:06:54.417Z,21.03
2022-12-04T06:09:21.418Z,18.20
2022-12-04T06:11:48.139Z,19.23
2022-12-04T06:14:16.363Z,19.83
2022-12-04T06:16:45.278Z,19.30
2022-12-04T06:19:19.409Z,18.50
2022-12-04T06:21:49.046Z,17.50
2022-12-04T06:24:19.012Z,18.70
2022-12-04T06:27:11.345Z,18.80
2022-12-04T06:29:32.789Z,19.50
2022-12-04T06:31:59.685Z,20.00
2022-12-04T06:34:26.595Z,19.93
2022-12-04T06:36:53.405Z,18.67
2022-12-04T06:39:20.227Z,17.63
2022-12-04T06:41:47.553Z,17.80
2022-12-04T06:44:20.634Z,20.40
2022-12-04T06:46:50.202Z,17.60
2022-12-04T06:49:17.034Z,18.50
2022-12-04T06:51:44.086Z,18.60
2022-12-04T06:54:13.853Z,19.97
2022-12-04T06:56:40.758Z,19.90
2022-12-04T06:59:07.870Z,17.20
2022-12-04T07:01:35.463Z,18.13
2022-12-04T07:04:04.966Z,17.63
2022-12-04T07:06:34.559Z,17.80
2022-12-04T07:09:07.710Z,16.87
2022-12-04T07:11:34.578Z,16.80
2022-12-04T07:14:01.923Z,17.10
2022-12-04T07:16:33.976Z,16.80
2022-12-04T07:19:03.530Z,18.93
2022-12-04T07:21:32.005Z,18.00
2022-12-04T07:24:00.912Z,18.50
2022-12-04T07:26:29.507Z,17.73
2022-12-04T07:28:57.668Z,16.47
2022-12-04T07:31:26.045Z,17.70
2022-12-04T07:33:53.903Z,17.70
2022-12-04T07:36:22.397Z,17.10
2022-12-04T07:38:50.214Z,17.30
2022-12-04T07:41:17.717Z,16.50
2022-12-04T07:43:44.788Z,16.90
2022-12-04T07:46:20.277Z,18.20
2022-12-04T07:48:47.635Z,15.40
2022-12-04T07:51:17.807Z,17.23
2022-12-04T07:53:45.457Z,16.63
2022-12-04T07:56:12.817Z,18.10
2022-12-04T07:58:41.432Z,18.10
2022-12-04T08:01:13.702Z,16.33
2022-12-04T08:03:47.643Z,16.90
2022-12-04T08:06:16.615Z,18.03
2022-12-04T08:08:43.771Z,20.10
2022-12-04T08:11:13.714Z,19.10
2022-12-04T08:13:40.826Z,17.80
2022-12-04T08:16:09.913Z,18.70
2022-12-04T08:18:37.054Z,17.30
2022-12-04T08:21:04.983Z,18.83
2022-12-04T08:23:31.848Z,18.00
2022-12-04T08:26:00.933Z,19.40
2022-12-04T08:28:28.251Z,18.27
2022-12-04T08:30:58.468Z,16.80
2022-12-04T08:33:25.296Z,19.10
2022-12-04T08:35:52.032Z,17.77
2022-12-04T08:38:18.851Z,20.90
2022-12-04T08:40:45.556Z,20.00
2022-12-04T08:43:12.229Z,18.27
2022-12-04T08:45:39.425Z,19.00
2022-12-04T08:48:07.923Z,17.03
2022-12-04T08:50:34.759Z,16.80
2022-12-04T08:53:01.431Z,17.50
2022-12-04T08:55:31.143Z,16.93
2022-12-04T08:57:57.897Z,19.70
2022-12-04T09:00:27.169Z,17.80
2022-12-04T09:02:54.025Z,17.80
2022-12-04T09:05:21.067Z,17.77
2022-12-04T09:07:48.360Z,18.60
2022-12-04T09:10:15.173Z,17.00
2022-12-04T09:12:43.865Z,18.93
2022-12-04T09:15:11.123Z,16.67
2022-12-04T09:17:38.239Z,17.07
2022-12-04T09:20:09.081Z,17.00
2022-12-04T09:23:02.260Z,18.27
2022-12-04T09:25:23.663Z,17.93
2022-12-04T09:27:50.507Z,15.37
2022-12-04T09:30:17.630Z,18.30
2022-12-04T09:32:44.444Z,17.40
2022-12-04T09:35:13.843Z,16.97
2022-12-04T09:37:40.789Z,18.10
2022-12-04T09:40:09.317Z,17.67
2022-12-04T09:42:55.847Z,18.93
2022-12-04T09:45:25.574Z,17.20
2022-12-04T09:47:58.049Z,18.83
2022-12-04T09:50:45.583Z,16.77
2022-12-04T09:53:24.807Z,16.77
2022-12-04T09:56:00.379Z,16.07
2022-12-04T09:58:57.354Z,16.90
2022-12-04T10:01:44.857Z,17.33
2022-12-04T10:04:12.937Z,16.43
2022-12-04T10:07:01.313Z,19.30
2022-12-04T10:09:35.063Z,18.27
2022-12-04T10:12:14.683Z,21.90
2022-12-04T10:14:49.869Z,20.33
2022-12-04T10:17:40.906Z,15.70
2022-12-04T10:20:14.068Z,16.53
2022-12-04T10:23:13.385Z,19.80
2022-12-04T10:25:41.836Z,16.73
2022-12-04T10:28:31.413Z,16.97
2022-12-04T10:31:02.115Z,18.77
2022-12-04T10:33:44.164Z,18.57
2022-12-04T10:36:17.843Z,14.73
2022-12-04T10:38:53.881Z,15.47
2022-12-04T10:41:52.453Z,17.73
2022-12-04T10:44:20.731Z,17.27
2022-12-04T10:46:48.823Z,15.47
2022-12-04T10:49:28.754Z,17.60
2022-12-04T10:52:14.332Z,17.57
2022-12-04T10:55:01.865Z,15.93
2022-12-04T10:57:49.200Z,17.30
2022-12-04T11:00:36.296Z,17.10
2022-12-04T11:03:27.666Z,17.87
2022-12-04T11:06:15.128Z,16.83
2022-12-04T11:09:03.737Z,17.27
2022-12-04T11:11:51.897Z,18.13
2022-12-04T11:14:42.744Z,17.23
2022-12-04T11:17:32.568Z,15.40
2022-12-04T11:20:25.107Z,14.10
2022-12-04T11:23:16.942Z,15.53
2022-12-04T11:26:06.447Z,17.60
2022-12-04T11:28:54.944Z,17.13
2022-12-04T11:31:47.467Z,15.47
2022-12-04T11:34:41.053Z,17.00
2022-12-04T11:37:33.949Z,18.23
2022-12-04T11:40:21.832Z,20.40
2022-12-04T11:43:21.372Z,17.73
2022-12-04T11:46:22.012Z,18.10
2022-12-04T11:49:21.756Z,18.23
2022-12-04T11:52:31.603Z,17.27
2022-12-04T11:55:53.101Z,18.17
2022-12-04T11:59:24.155Z,17.17
2022-12-04T12:02:20.230Z,15.40
2022-12-04T12:05:22.292Z,17.83
2022-12-04T12:08:09.194Z,16.90
2022-12-04T12:11:10.426Z,16.17
2022-12-04T12:14:08.763Z,16.80
2022-12-04T12:17:11.044Z,15.83
2022-12-04T12:20:06.678Z,16.13
2022-12-04T12:23:11.946Z,15.80
2022-12-04T12:26:16.249Z,15.23
2022-12-04T12:29:13.238Z,15.70
2022-12-04T12:32:29.840Z,15.40
2022-12-04T12:35:29.142Z,14.63
2022-12-04T12:38:25.174Z,14.70
2022-12-04T12:41:23.514Z,15.50
2022-12-04T12:44:22.285Z,16.77
2022-12-04T12:47:19.534Z,15.63
2022-12-04T12:50:24.043Z,16.00
2022-12-04T12:53:19.406Z,16.37
2022-12-04T12:56:11.977Z,16.47
2022-12-04T12:59:04.187Z,15.13
2022-12-04T13:02:00.699Z,17.47
2022-12-04T13:04:52.767Z,15.50
2022-12-04T13:07:54.275Z,16.67
2022-12-04T13:10:47.109Z,14.93
2022-12-04T13:13:38.988Z,15.67
2022-12-04T13:16:51.550Z,16.53
2022-12-04T13:19:46.534Z,17.97
2022-12-04T13:23:00.207Z,15.67
2022-12-04T13:26:21.964Z,16.33
2022-12-04T13:29:44.857Z,14.60
2022-12-04T13:32:55.398Z,15.80
2022-12-04T13:36:34.223Z,15.57
2022-12-04T13:39:36.485Z,15.37
2022-12-04T13:42:28.867Z,15.20
2022-12-04T13:45:44.679Z,17.67
2022-12-04T13:48:39.575Z,17.47
2022-12-04T13:51:38.125Z,20.70
2022-12-04T13:54:34.243Z,16.43
2022-12-04T13:57:22.653Z,16.33
2022-12-04T14:00:25.937Z,17.30
2022-12-04T14:03:49.555Z,16.70
2022-12-04T14:06:43.194Z,17.23
2022-12-04T14:09:42.511Z,16.30
2022-12-04T14:12:35.133Z,15.10
2022-12-04T14:15:24.483Z,15.73
2022-12-04T14:18:11.578Z,17.60
2022-12-04T14:21:05.641Z,17.43
2022-12-04T14:23:53.676Z,18.67
2022-12-04T14:30:00.094Z,17.00
2022-12-04T14:32:56.143Z,16.60
2022-12-04T14:35:48.755Z,17.83
2022-12-04T14:38:35.895Z,15.87
2022-12-04T14:41:27.173Z,18.80
2022-12-04T14:44:30.199Z,34.47
2022-12-04T14:47:34.023Z,20.60
2022-12-04T14:51:12.530Z,19.47
2022-12-04T14:54:08.873Z,16.77
2022-12-04T14:57:12.065Z,18.83
2022-12-04T15:00:00.935Z,17.50
2022-12-04T15:02:51.950Z,16.77
2022-12-04T15:05:39.027Z,17.90
2022-12-04T15:08:26.121Z,17.60
2022-12-04T15:11:39.142Z,18.30
2022-12-04T15:14:26.219Z,18.10
2022-12-04T15:17:15.520Z,16.67
2022-12-04T15:20:11.816Z,17.13
2022-12-04T15:22:58.867Z,16.20
2022-12-04T15:25:48.681Z,16.00
2022-12-04T15:28:43.984Z,16.77
2022-12-04T15:31:31.003Z,17.57
2022-12-04T15:34:21.583Z,16.60
2022-12-04T15:37:25.633Z,17.23
2022-12-04T15:40:20.992Z,18.50
2022-12-04T15:43:17.210Z,15.27
2022-12-04T15:46:14.130Z,17.93
2022-12-04T15:49:18.377Z,16.40
2022-12-04T15:52:17.748Z,16.73
2022-12-04T15:55:08.951Z,16.10
2022-12-04T15:58:04.369Z,17.00
2022-12-04T16:01:01.097Z,15.80
2022-12-04T16:03:51.178Z,17.97
2022-12-04T16:06:56.404Z,15.83
2022-12-04T16:10:03.297Z,15.63
2022-12-04T16:13:00.822Z,14.93
2022-12-04T16:15:47.869Z,15.27
2022-12-04T16:18:35.158Z,16.83
2022-12-04T16:21:26.873Z,16.10
2022-12-04T16:24:14.189Z,15.23
2022-12-04T16:27:01.404Z,16.17
2022-12-04T16:29:49.956Z,16.53
2022-12-04T16:32:37.115Z,16.97
2022-12-04T16:35:24.189Z,18.07
2022-12-04T16:38:16.757Z,17.47
2022-12-04T16:41:13.249Z,18.57
2022-12-04T16:44:01.118Z,17.40
2022-12-04T16:46:50.977Z,16.53
2022-12-04T16:49:38.817Z,19.80
2022-12-04T16:52:26.302Z,17.47
2022-12-04T16:55:24.726Z,19.40
2022-12-04T16:58:11.913Z,19.00
2022-12-04T17:00:58.932Z,19.90
2022-12-04T17:03:46.295Z,18.00
2022-12-04T17:06:33.455Z,20.30
2022-12-04T17:09:20.660Z,18.73
2022-12-04T17:12:08.574Z,18.87
2022-12-04T17:14:55.832Z,16.97
2022-12-04T17:17:43.082Z,18.60
2022-12-04T17:20:31.594Z,20.87
2022-12-04T17:23:18.788Z,19.47
2022-12-04T17:26:08.441Z,21.23
2022-12-04T17:28:55.496Z,20.30
2022-12-04T17:31:42.496Z,19.30
2022-12-04T17:34:29.802Z,20.03
2022-12-04T17:37:16.865Z,21.90
2022-12-04T17:40:05.432Z,20.73
2022-12-04T17:42:52.516Z,21.07
2022-12-04T17:45:41.167Z,21.60
2022-12-04T17:48:29.393Z,19.73
2022-12-04T17:51:20.062Z,18.73
2022-12-04T17:54:07.536Z,19.10
2022-12-04T17:56:57.740Z,22.17
2022-12-04T17:59:45.814Z,21.93
2022-12-04T18:02:32.800Z,26.07
2022-12-04T18:05:19.806Z,21.93
2022-12-04T18:08:06.788Z,21.53
2022-12-04T18:10:53.998Z,20.53
2022-12-04T18:13:41.057Z,20.30
2022-12-04T18:16:30.147Z,20.80
2022-12-04T18:19:17.171Z,21.70
2022-12-04T18:22:04.215Z,20.07
2022-12-04T18:24:51.698Z,20.70
2022-12-04T18:27:41.793Z,22.10
2022-12-04T18:30:29.259Z,21.83
2022-12-04T18:33:19.032Z,19.90
2022-12-04T18:36:09.145Z,22.63
2022-12-04T18:38:58.704Z,24.03
2022-12-04T18:41:46.389Z,22.20
2022-12-04T18:44:33.486Z,22.77
2022-12-04T18:47:20.443Z,23.03
2022-12-04T18:50:07.853Z,21.73
2022-12-04T18:52:59.932Z,21.80
2022-12-04T18:55:48.299Z,23.40
2022-12-04T18:58:35.295Z,23.70
2022-12-04T19:01:22.506Z,22.33
2022-12-04T19:04:11.276Z,20.70
2022-12-04T19:06:58.308Z,23.67
2022-12-04T19:10:10.468Z,22.90
2022-12-04T19:12:52.717Z,21.73
2022-12-04T19:15:43.902Z,21.50
2022-12-04T19:18:31.600Z,24.20
2022-12-04T19:21:18.896Z,22.83
2022-12-04T19:24:06.262Z,23.33
2022-12-04T19:26:54.108Z,22.47
2022-12-04T19:29:42.981Z,21.10
2022-12-04T19:32:30.061Z,22.00
2022-12-04T19:35:17.394Z,21.63
2022-12-04T19:38:04.653Z,23.80
2022-12-04T19:41:08.135Z,21.60
2022-12-04T19:43:57.373Z,23.10
2022-12-04T19:47:05.207Z,23.13
2022-12-04T19:49:57.826Z,21.30
2022-12-04T19:53:00.864Z,22.47
2022-12-04T19:59:30.572Z,22.00
2022-12-04T20:02:21.822Z,20.87
2022-12-04T20:05:09.316Z,22.83
2022-12-04T20:10:43.921Z,20.47
2022-12-04T20:13:31.078Z,18.77
2022-12-04T20:16:19.491Z,20.90
2022-12-04T20:19:08.927Z,20.87
2022-12-04T20:21:59.356Z,23.40
2022-12-04T20:24:47.129Z,21.53
2022-12-04T20:27:34.335Z,20.53
2022-12-04T20:30:22.808Z,21.60
2022-12-04T20:33:09.868Z,20.90
2022-12-04T20:35:57.165Z,20.97
2022-12-04T20:38:45.160Z,24.17
2022-12-04T20:41:33.285Z,20.57
2022-12-04T20:44:20.962Z,22.07
2022-12-04T20:47:08.070Z,18.70
2022-12-04T20:49:56.509Z,20.63
2022-12-04T20:52:43.818Z,20.97
2022-12-04T20:55:30.835Z,20.37
2022-12-04T20:58:18.254Z,21.13
2022-12-04T21:01:11.323Z,22.47
2022-12-04T21:03:59.689Z,20.80
2022-12-04T21:06:48.448Z,21.13
2022-12-04T21:09:35.810Z,20.63
2022-12-04T21:12:43.330Z,22.40
2022-12-04T21:15:49.442Z,23.33
2022-12-04T21:18:37.376Z,21.43
2022-12-04T21:21:27.204Z,22.40
2022-12-04T21:24:16.428Z,24.20
2022-12-04T21:27:03.740Z,21.20
2022-12-04T21:29:51.045Z,22.10
2022-12-04T21:32:38.296Z,21.20
2022-12-04T21:35:25.584Z,23.03
2022-12-04T21:38:12.620Z,22.20
2022-12-04T21:41:00.357Z,21.40
2022-12-04T21:43:47.359Z,22.07
2022-12-04T21:46:34.841Z,20.30
2022-12-04T21:49:22.285Z,22.03
2022-12-04T21:52:09.317Z,21.77
2022-12-04T21:54:57.083Z,22.00
2022-12-04T21:57:44.082Z,20.97
2022-12-04T22:00:31.268Z,22.50
2022-12-04T22:03:19.090Z,21.43
2022-12-04T22:06:06.660Z,22.00
2022-12-04T22:08:54.602Z,23.10
2022-12-04T22:11:43.310Z,21.37
2022-12-04T22:14:30.472Z,20.17
2022-12-04T22:17:17.491Z,21.13
2022-12-04T22:20:05.430Z,19.47
2022-12-04T22:22:52.610Z,19.97
2022-12-04T22:25:39.749Z,21.00
2022-12-04T22:28:26.778Z,21.70
2022-12-04T22:31:17.011Z,20.20
2022-12-04T22:34:04.344Z,20.03
2022-12-04T22:36:51.373Z,20.57
2022-12-04T22:39:38.463Z,22.40
2022-12-04T22:42:25.502Z,19.60
2022-12-04T22:45:12.987Z,21.77
2022-12-04T22:48:00.011Z,21.10
2022-12-04T22:51:05.860Z,18.83
2022-12-04T22:53:55.568Z,18.43
2022-12-04T22:56:44.338Z,21.07
2022-12-04T22:59:31.347Z,18.03
2022-12-04T23:02:18.517Z,19.90
2022-12-04T23:05:05.816Z,19.63
2022-12-04T23:07:52.964Z,20.50
2022-12-04T23:10:40.245Z,22.30
2022-12-04T23:13:27.389Z,18.30
2022-12-04T23:16:19.848Z,21.23
2022-12-04T23:19:09.349Z,21.83
2022-12-04T23:21:57.385Z,20.47
2022-12-04T23:24:44.563Z,20.90
2022-12-04T23:27:32.309Z,20.33
2022-12-04T23:30:26.137Z,20.27
2022-12-04T23:33:14.582Z,19.90
2022-12-04T23:36:02.978Z,21.77
2022-12-04T23:38:50.361Z,20.70
2022-12-04T23:41:37.430Z,21.67
2022-12-04T23:44:24.549Z,22.27
2022-12-04T23:47:11.929Z,20.43
2022-12-04T23:49:59.414Z,23.07
2022-12-04T23:52:46.887Z,22.50
2022-12-04T23:55:34.817Z,20.17
2022-12-04T23:58:22.046Z,22.73
